Time;durP1;ratioP1;P1;durP2;ratioP2;P2;SDS_P1;SDS_P2;PMS_P1;PMS_P2;Temp;Humidity;BMP_temperature;BMP_pressure;BME280_temperature;BME280_humidity;BME280_pressure;Samples;Min_cycle;Max_cycle;Signal;HPM_P1;HPM_P2
2023/10/12 00:02:21;;;;;;;15.18;4.45;;;18.80;95.20;;;;;;4910110;28;91831;-76
2023/10/12 00:04:53;;;;;;;11.15;4.30;;;18.80;95.10;;;;;;4928282;28;91518;-76
2023/10/12 00:07:42;;;;;;;13.27;4.65;;;18.80;95.20;;;;;;4925746;28;88068;-74
2023/10/12 00:12:51;;;;;;;17.13;5.72;;;18.80;95.10;;;;;;4925275;28;88054;-72
2023/10/12 00:15:40;;;;;;;11.20;4.63;;;18.80;94.70;;;;;;4925835;28;90618;-75
2023/10/12 00:18:10;;;;;;;9.75;4.40;;;18.80;94.90;;;;;;4925239;28;88950;-74
2023/10/12 00:20:37;;;;;;;11.40;3.97;;;18.80;95.10;;;;;;4910550;28;90280;-73
2023/10/12 00:23:10;;;;;;;11.00;4.57;;;18.70;95.20;;;;;;4927893;28;91922;-74
2023/10/12 00:25:47;;;;;;;11.02;4.45;;;18.70;95.10;;;;;;4926515;28;88926;-74
2023/10/12 00:28:39;;;;;;;15.38;4.53;;;18.70;95.00;;;;;;4925798;28;87730;-75
2023/10/12 00:31:07;;;;;;;21.33;5.03;;;18.60;95.10;;;;;;4929637;28;89312;-73
2023/10/12 00:33:33;;;;;;;11.00;4.40;;;18.70;95.50;;;;;;4922022;28;91163;-75
2023/10/12 00:36:04;;;;;;;15.38;4.65;;;18.60;95.30;;;;;;4924961;28;87864;-73
2023/10/12 00:38:31;;;;;;;13.48;4.68;;;18.60;95.60;;;;;;4916359;28;88010;-74
2023/10/12 00:41:00;;;;;;;10.18;5.07;;;18.60;95.60;;;;;;4926855;28;90463;-74
2023/10/12 00:43:36;;;;;;;11.02;4.90;;;18.60;95.70;;;;;;4926918;28;92812;-74
2023/10/12 00:51:49;;;;;;;8.48;4.60;;;18.50;96.30;;;;;;4926235;28;87690;-75
2023/10/12 00:54:25;;;;;;;10.45;4.45;;;18.50;96.50;;;;;;4926960;28;90421;-77
2023/10/12 00:56:55;;;;;;;8.65;5.03;;;18.50;96.70;;;;;;4932929;28;95559;-76
2023/10/12 00:59:22;;;;;;;11.00;5.13;;;18.40;97.00;;;;;;4931579;28;88094;-76
2023/10/12 01:01:50;;;;;;;9.63;4.72;;;18.40;96.70;;;;;;4929561;28;90770;-75
2023/10/12 01:04:16;;;;;;;5.68;4.15;;;18.40;96.90;;;;;;4924171;28;88905;-75
2023/10/12 01:06:47;;;;;;;13.00;5.30;;;18.40;97.00;;;;;;4923841;28;87702;-75
2023/10/12 01:09:20;;;;;;;11.77;4.97;;;18.40;97.00;;;;;;4922584;28;89183;-74
2023/10/12 01:11:59;;;;;;;9.68;4.93;;;18.30;96.90;;;;;;4925712;28;95402;-75
2023/10/12 01:14:31;;;;;;;10.85;4.82;;;18.30;96.90;;;;;;4907495;28;90631;-74
2023/10/12 01:17:04;;;;;;;8.88;4.53;;;18.30;97.00;;;;;;4913433;28;90991;-75
2023/10/12 01:19:34;;;;;;;8.90;4.63;;;18.30;97.10;;;;;;4911415;28;87767;-74
2023/10/12 01:22:12;;;;;;;10.13;4.53;;;18.30;97.00;;;;;;4924356;28;88712;-74
2023/10/12 01:27:22;;;;;;;10.07;4.32;;;18.20;97.10;;;;;;4924924;28;88839;-77
2023/10/12 01:29:48;;;;;;;11.05;4.88;;;18.20;97.30;;;;;;4929849;28;88857;-74
2023/10/12 01:34:53;;;;;;;11.63;4.97;;;18.20;97.30;;;;;;4922272;28;88682;-74
2023/10/12 01:37:25;;;;;;;11.25;5.28;;;18.20;97.30;;;;;;4923757;28;89563;-74
2023/10/12 01:40:15;;;;;;;12.55;5.30;;;18.20;97.40;;;;;;4903350;28;88025;-73
2023/10/12 01:45:41;;;;;;;12.90;5.22;;;18.20;97.70;;;;;;4908496;28;88115;-73
2023/10/12 01:48:10;;;;;;;22.08;5.15;;;18.20;97.70;;;;;;4918186;28;95637;-76
2023/10/12 01:50:38;;;;;;;8.73;5.27;;;18.10;97.90;;;;;;4917828;28;87999;-74
2023/10/12 01:53:25;;;;;;;14.73;4.90;;;18.10;98.20;;;;;;4911241;28;90464;-73
2023/10/12 01:55:52;;;;;;;13.45;5.50;;;18.10;98.50;;;;;;4914053;28;91242;-76
2023/10/12 01:58:27;;;;;;;13.75;5.40;;;18.10;98.80;;;;;;4922910;28;89697;-76
2023/10/12 02:01:04;;;;;;;12.98;5.25;;;18.00;99.00;;;;;;4900653;28;88541;-74
2023/10/12 02:05:58;;;;;;;8.13;5.05;;;17.90;99.40;;;;;;4923526;28;87490;-75
2023/10/12 02:08:46;;;;;;;12.23;6.05;;;17.90;99.60;;;;;;4923259;28;88477;-76
2023/10/12 02:13:54;;;;;;;12.90;5.63;;;17.80;99.80;;;;;;4923422;28;87492;-73
2023/10/12 02:16:26;;;;;;;13.23;5.82;;;17.70;99.90;;;;;;4912948;28;91502;-75
2023/10/12 02:18:54;;;;;;;15.48;6.47;;;17.70;99.90;;;;;;4928926;28;91118;-74
2023/10/12 02:21:21;;;;;;;10.82;6.25;;;17.60;99.90;;;;;;4922724;28;87642;-76
2023/10/12 02:23:56;;;;;;;11.07;5.97;;;17.60;99.90;;;;;;4924104;28;88242;-77
2023/10/12 02:26:35;;;;;;;12.82;5.70;;;17.60;99.90;;;;;;4912309;28;93168;-74
2023/10/12 02:31:29;;;;;;;14.52;7.45;;;17.60;99.90;;;;;;4923635;28;88319;-75
2023/10/12 02:33:56;;;;;;;17.05;6.70;;;17.50;99.90;;;;;;4913021;28;89460;-74
2023/10/12 02:36:22;;;;;;;16.80;7.00;;;17.50;99.90;;;;;;4912414;28;91645;-75
2023/10/12 02:38:48;;;;;;;9.52;5.70;;;17.50;99.90;;;;;;4924697;28;88294;-74
2023/10/12 02:41:14;;;;;;;15.77;6.53;;;17.40;99.90;;;;;;4923009;28;87494;-75
2023/10/12 02:43:42;;;;;;;17.73;7.32;;;17.40;99.90;;;;;;4915776;28;90531;-76
2023/10/12 02:46:21;;;;;;;15.10;6.80;;;17.40;99.90;;;;;;4915669;28;90774;-76
2023/10/12 02:48:47;;;;;;;12.93;7.07;;;17.40;99.90;;;;;;4915932;28;91362;-76
2023/10/12 02:51:16;;;;;;;16.23;6.82;;;17.40;99.90;;;;;;4928032;28;89197;-75
2023/10/12 02:53:42;;;;;;;13.18;6.07;;;17.40;99.90;;;;;;4923427;28;87774;-77
2023/10/12 02:56:08;;;;;;;10.35;6.00;;;17.40;99.90;;;;;;4910323;28;90607;-76
2023/10/12 02:58:33;;;;;;;12.95;6.22;;;17.40;99.90;;;;;;4923375;28;88054;-76
2023/10/12 03:01:12;;;;;;;13.10;6.00;;;17.40;99.90;;;;;;4907994;28;92679;-75
2023/10/12 03:03:48;;;;;;;10.43;5.70;;;17.40;99.90;;;;;;4923210;28;87671;-74
2023/10/12 03:06:20;;;;;;;12.98;6.72;;;17.40;99.90;;;;;;4927398;28;92178;-75
2023/10/12 03:08:50;;;;;;;12.57;7.60;;;17.40;99.90;;;;;;4930542;28;95853;-75
2023/10/12 03:11:20;;;;;;;13.38;6.35;;;17.40;99.90;;;;;;4924433;28;87545;-76
2023/10/12 03:14:12;;;;;;;15.65;7.53;;;17.30;99.90;;;;;;4926434;28;88339;-75
2023/10/12 03:16:41;;;;;;;16.08;7.53;;;17.30;99.90;;;;;;4924614;28;88901;-78
2023/10/12 03:21:51;;;;;;;14.93;7.07;;;17.20;99.90;;;;;;4932448;28;87382;-75
2023/10/12 03:24:37;;;;;;;14.82;6.60;;;17.20;99.90;;;;;;4939893;28;90120;-76
2023/10/12 03:29:29;;;;;;;11.07;6.65;;;17.10;99.90;;;;;;4936515;28;87797;-74
2023/10/12 03:31:57;;;;;;;11.90;6.47;;;17.10;99.90;;;;;;4936156;28;87457;-75
2023/10/12 03:37:03;;;;;;;15.75;7.00;;;17.00;99.90;;;;;;4933514;28;88031;-76
2023/10/12 03:39:32;;;;;;;17.90;7.35;;;16.90;99.90;;;;;;4936176;28;91339;-76
2023/10/12 03:42:41;;;;;;;12.60;7.22;;;16.80;99.90;;;;;;4930586;28;88924;-75
2023/10/12 03:45:08;;;;;;;12.73;8.20;;;16.70;99.90;;;;;;4930259;28;92779;-74
2023/10/12 03:48:03;;;;;;;15.00;8.70;;;16.60;99.90;;;;;;4938299;28;91111;-76
2023/10/12 03:50:34;;;;;;;15.73;7.70;;;16.50;99.90;;;;;;4913749;28;91442;-75
2023/10/12 03:53:05;;;;;;;20.02;8.85;;;16.50;99.90;;;;;;4937050;28;87346;-75
2023/10/12 03:55:33;;;;;;;15.80;8.05;;;16.40;99.90;;;;;;4943421;28;90478;-75
2023/10/12 03:58:00;;;;;;;18.27;8.25;;;16.40;99.90;;;;;;4923774;28;91780;-75
2023/10/12 04:00:34;;;;;;;13.35;7.22;;;16.40;99.90;;;;;;4940601;28;87514;-76
2023/10/12 04:03:05;;;;;;;19.80;8.82;;;16.30;99.90;;;;;;4951008;28;87196;-76
2023/10/12 04:05:55;;;;;;;18.20;7.97;;;16.30;99.90;;;;;;4928435;28;89326;-76
2023/10/12 04:20:28;;;;;;;15.43;7.40;;;16.30;99.90;;;;;;4930510;28;87497;-76
2023/10/12 04:33:39;;;;;;;16.50;8.73;;;16.10;99.90;;;;;;4904184;28;87180;-76
2023/10/12 06:51:02;;;;;;;17.10;7.97;;;15.70;99.90;;;;;;4982591;28;87517;-75
2023/10/12 06:53:36;;;;;;;11.55;7.20;;;15.70;99.90;;;;;;4979855;28;89483;-74
2023/10/12 06:59:07;;;;;;;16.42;7.55;;;15.70;99.90;;;;;;4978490;28;88506;-77
2023/10/12 07:01:38;;;;;;;20.40;7.57;;;15.70;99.90;;;;;;4964903;28;87989;-75
2023/10/12 07:04:25;;;;;;;20.05;8.25;;;15.70;99.90;;;;;;4974322;28;88229;-77
2023/10/12 07:06:57;;;;;;;12.40;7.20;;;15.70;99.90;;;;;;4957302;23;87925;-77
2023/10/12 07:12:07;;;;;;;18.02;6.93;;;15.70;99.90;;;;;;4955953;28;88538;-77
2023/10/12 07:14:38;;;;;;;12.52;6.25;;;15.70;99.90;;;;;;4963377;28;87350;-77
2023/10/12 07:17:09;;;;;;;16.85;8.27;;;15.70;99.90;;;;;;4963573;28;88098;-77
2023/10/12 07:19:41;;;;;;;10.88;7.32;;;15.80;99.90;;;;;;4962429;28;89768;-77
2023/10/12 07:22:19;;;;;;;14.77;7.10;;;15.80;99.90;;;;;;4964382;28;88877;-77
2023/10/12 07:24:46;;;;;;;18.63;7.93;;;15.80;99.90;;;;;;4960648;28;87783;-77
2023/10/12 07:27:17;;;;;;;15.18;7.40;;;15.80;99.90;;;;;;4950453;28;87226;-77
2023/10/12 07:29:47;;;;;;;13.90;7.40;;;15.80;99.90;;;;;;4953431;28;89304;-77
2023/10/12 07:32:38;;;;;;;14.10;7.00;;;15.70;99.90;;;;;;4945025;28;88019;-77
2023/10/12 07:35:17;;;;;;;15.60;7.20;;;15.80;99.90;;;;;;4947347;28;87738;-78
2023/10/12 07:37:43;;;;;;;15.32;7.38;;;15.80;99.90;;;;;;4958658;28;88144;-77
2023/10/12 07:40:17;;;;;;;18.83;7.55;;;15.80;99.90;;;;;;4968918;28;87733;-76
2023/10/12 07:42:46;;;;;;;16.52;8.07;;;15.80;99.90;;;;;;4956257;28;88631;-77
2023/10/12 07:45:15;;;;;;;14.18;7.45;;;15.80;99.90;;;;;;4956847;28;88466;-77
2023/10/12 07:47:41;;;;;;;13.23;7.20;;;15.90;99.90;;;;;;4967568;28;87677;-77
2023/10/12 07:50:12;;;;;;;17.85;6.82;;;15.90;99.90;;;;;;4956240;28;88544;-77
2023/10/12 07:52:40;;;;;;;16.42;6.70;;;15.90;99.90;;;;;;4953322;28;91487;-77
2023/10/12 07:55:12;;;;;;;17.08;7.25;;;15.90;99.90;;;;;;4955636;28;87617;-77
2023/10/12 07:57:38;;;;;;;21.17;7.13;;;15.90;99.90;;;;;;4955119;28;87617;-77
2023/10/12 08:05:24;;;;;;;13.65;6.75;;;16.00;99.90;;;;;;4961660;28;88126;-77
2023/10/12 08:13:14;;;;;;;13.65;7.05;;;16.10;99.90;;;;;;4952722;28;89491;-77
2023/10/12 08:21:33;;;;;;;16.17;6.88;;;16.10;99.90;;;;;;4950674;28;88031;-77
2023/10/12 08:24:09;;;;;;;17.52;6.53;;;16.10;99.90;;;;;;4954039;28;91421;-77
2023/10/12 08:32:04;;;;;;;11.40;6.53;;;16.20;99.90;;;;;;4963224;28;88017;-77
2023/10/12 08:39:38;;;;;;;12.73;6.82;;;16.40;99.90;;;;;;4949819;28;87708;-77
2023/10/12 08:44:55;;;;;;;13.75;6.45;;;16.50;99.90;;;;;;4949687;28;92559;-77
2023/10/12 08:50:25;;;;;;;14.43;6.35;;;16.70;99.90;;;;;;4942303;28;87866;-77
2023/10/12 08:52:52;;;;;;;21.48;7.00;;;16.80;99.90;;;;;;4956057;28;89687;-77
2023/10/12 08:55:24;;;;;;;15.77;6.10;;;16.90;99.90;;;;;;4962941;28;86967;-76
2023/10/12 08:58:38;;;;;;;20.85;5.97;;;17.00;99.90;;;;;;4963781;28;87810;-77
2023/10/12 09:01:10;;;;;;;10.68;5.82;;;17.00;99.90;;;;;;4957891;28;87813;-77
2023/10/12 09:03:46;;;;;;;16.08;5.80;;;17.20;99.90;;;;;;4949928;28;89217;-77
2023/10/12 09:06:29;;;;;;;17.73;6.22;;;17.20;99.90;;;;;;4953161;28;89440;-77
2023/10/12 09:08:56;;;;;;;;;;;17.40;99.90;;;;;;4952995;28;87775;-77
2023/10/12 09:11:29;;;;;;;13.40;5.60;;;17.50;99.90;;;;;;4943538;28;87995;-76
2023/10/12 09:13:57;;;;;;;21.70;5.97;;;17.60;99.90;;;;;;4931647;28;88416;-77
2023/10/12 09:16:23;;;;;;;12.88;5.47;;;17.60;99.90;;;;;;4944852;28;88193;-77
2023/10/12 09:18:57;;;;;;;15.15;5.75;;;17.70;99.90;;;;;;4953135;28;87524;-78
2023/10/12 09:21:25;;;;;;;13.35;5.70;;;17.90;99.90;;;;;;4959587;28;87525;-79
2023/10/12 09:27:00;;;;;;;11.60;5.50;;;18.20;99.90;;;;;;4951881;28;88036;-80
2023/10/12 09:29:31;;;;;;;11.57;5.57;;;18.30;99.90;;;;;;4976659;28;88933;-77
2023/10/12 09:32:23;;;;;;;18.08;6.57;;;18.40;99.90;;;;;;4926068;28;90542;-77
2023/10/12 09:37:43;;;;;;;14.68;5.90;;;18.50;99.90;;;;;;4954777;28;87224;-77
2023/10/12 09:40:25;;;;;;;14.52;5.90;;;18.60;99.90;;;;;;4978281;28;87537;-77
2023/10/12 09:42:55;;;;;;;16.60;5.43;;;18.70;99.90;;;;;;4954746;28;87781;-78
2023/10/12 09:45:24;;;;;;;17.15;6.38;;;18.70;99.90;;;;;;4976430;28;88353;-76
2023/10/12 09:47:57;;;;;;;13.88;5.70;;;18.80;99.90;;;;;;4956594;28;91598;-77
2023/10/12 09:50:32;;;;;;;;;;;18.80;99.90;;;;;;4974395;28;87378;-78
2023/10/12 09:53:21;;;;;;;12.07;5.25;;;18.80;99.90;;;;;;4975653;28;87539;-79
2023/10/12 09:56:15;;;;;;;14.80;5.45;;;18.70;99.90;;;;;;4979202;28;92664;-78
2023/10/12 10:06:55;;;;;;;23.05;8.02;;;18.50;99.90;;;;;;4973358;28;88427;-78
2023/10/12 10:09:37;;;;;;;17.40;6.38;;;18.50;99.90;;;;;;4973231;28;87784;-78
2023/10/12 10:12:08;;;;;;;18.83;6.53;;;18.50;99.90;;;;;;4976519;28;87760;-78
2023/10/12 10:14:36;;;;;;;10.60;5.40;;;18.50;99.90;;;;;;4974724;28;87238;-77
2023/10/12 10:17:03;;;;;;;13.98;5.93;;;18.40;99.90;;;;;;4970787;28;87817;-77
2023/10/12 10:19:29;;;;;;;15.20;5.60;;;18.40;99.90;;;;;;4982379;28;91156;-77
2023/10/12 10:22:11;;;;;;;15.75;6.05;;;18.30;99.90;;;;;;4982050;28;88338;-77
2023/10/12 10:24:46;;;;;;;17.55;6.65;;;18.40;99.90;;;;;;4973307;28;87394;-77
2023/10/12 10:27:15;;;;;;;12.23;5.25;;;18.40;99.90;;;;;;4973751;28;88454;-78
2023/10/12 10:30:23;;;;;;;;;;;;;;;;;;;;;
2023/10/12 10:33:12;;;;;;;12.60;5.55;;;18.40;99.90;;;;;;4926947;28;113944;-77
2023/10/12 10:41:54;;;;;;;12.32;5.80;;;18.50;99.90;;;;;;4968206;28;88355;-78
2023/10/12 10:44:26;;;;;;;13.80;5.45;;;18.50;99.90;;;;;;4960313;28;88113;-77
2023/10/12 10:47:07;;;;;;;17.88;6.07;;;18.50;99.90;;;;;;4956832;28;87157;-78
2023/10/12 10:49:36;;;;;;;14.32;5.70;;;18.60;99.90;;;;;;4985809;28;92693;-78
2023/10/12 10:54:37;;;;;;;12.10;5.00;;;18.70;99.90;;;;;;4969293;28;87369;-77
2023/10/12 10:57:57;;;;;;;;;;;;;;;;;;;;;
2023/10/12 11:00:33;;;;;;;12.07;5.65;;;18.80;99.90;;;;;;4942796;28;121469;-77
2023/10/12 11:03:03;;;;;;;11.75;5.00;;;18.70;99.90;;;;;;4955208;28;87212;-78
2023/10/12 11:05:33;;;;;;;14.20;5.20;;;18.80;99.90;;;;;;4958044;28;87630;-78
2023/10/12 11:08:19;;;;;;;13.80;5.97;;;18.80;99.90;;;;;;4968618;28;86555;-79
2023/10/12 11:13:46;;;;;;;13.30;5.45;;;18.80;99.90;;;;;;4969772;28;87402;-79
2023/10/12 11:16:30;;;;;;;14.98;5.78;;;18.90;99.90;;;;;;4967920;28;88481;-79
2023/10/12 11:18:57;;;;;;;13.32;5.60;;;18.80;99.90;;;;;;4976739;28;90875;-79
2023/10/12 11:21:25;;;;;;;14.77;5.03;;;18.90;99.90;;;;;;4973645;28;88849;-78
2023/10/12 11:24:31;;;;;;;15.18;5.10;;;18.90;99.90;;;;;;4968450;28;91700;-78
2023/10/12 11:26:57;;;;;;;12.32;5.05;;;18.90;99.90;;;;;;4921845;28;87843;-77
2023/10/12 11:29:24;;;;;;;10.93;4.90;;;18.90;99.90;;;;;;4968196;28;90170;-77
2023/10/12 11:32:08;;;;;;;17.48;6.20;;;19.00;99.90;;;;;;4952525;28;90334;-77
2023/10/12 11:34:53;;;;;;;21.25;5.32;;;19.00;99.90;;;;;;4953054;28;87741;-78
2023/10/12 11:37:39;;;;;;;14.88;5.13;;;19.00;99.90;;;;;;4955258;28;87524;-78
2023/10/12 11:40:07;;;;;;;14.57;5.40;;;19.10;99.90;;;;;;4970036;28;91112;-77
2023/10/12 11:42:32;;;;;;;10.88;4.75;;;19.20;99.90;;;;;;4947447;28;89286;-78
2023/10/12 11:45:06;;;;;;;12.32;5.05;;;19.20;99.90;;;;;;4949168;28;91381;-78
2023/10/12 11:47:37;;;;;;;16.63;4.80;;;19.20;99.90;;;;;;4947193;28;87522;-79
2023/10/12 11:50:09;;;;;;;9.32;4.82;;;19.20;99.90;;;;;;4948917;28;87646;-78
2023/10/12 11:52:37;;;;;;;12.38;4.88;;;19.10;99.90;;;;;;4942839;28;91065;-77
2023/10/12 11:55:06;;;;;;;11.18;4.65;;;19.20;99.90;;;;;;4959403;28;91534;-77
2023/10/12 11:57:33;;;;;;;9.52;4.47;;;19.20;99.90;;;;;;4942067;28;87818;-77
2023/10/12 12:00:18;;;;;;;9.13;4.57;;;19.10;99.90;;;;;;4941779;28;90591;-77
2023/10/12 12:02:44;;;;;;;10.40;4.95;;;19.00;99.90;;;;;;4937424;28;91661;-77
2023/10/12 12:05:11;;;;;;;13.70;4.60;;;18.90;99.90;;;;;;4944194;28;91710;-77
2023/10/12 12:07:37;;;;;;;13.30;5.13;;;18.80;99.90;;;;;;4944901;28;89445;-77
2023/10/12 12:10:07;;;;;;;12.07;4.55;;;18.90;99.90;;;;;;4946513;28;87790;-77
2023/10/12 12:12:38;;;;;;;13.52;4.60;;;18.90;99.90;;;;;;4944007;28;92160;-77
2023/10/12 12:15:04;;;;;;;10.30;5.15;;;18.90;99.90;;;;;;4949803;28;87896;-77
2023/10/12 12:17:30;;;;;;;13.52;5.43;;;19.00;99.90;;;;;;4947020;28;87732;-77
2023/10/12 12:19:56;;;;;;;11.50;4.53;;;19.10;99.90;;;;;;4947041;28;87949;-77
2023/10/12 12:22:25;;;;;;;12.15;5.43;;;19.00;99.90;;;;;;4946046;28;92091;-77
2023/10/12 12:24:51;;;;;;;13.07;4.93;;;19.10;99.90;;;;;;4962943;28;91621;-77
2023/10/12 12:30:07;;;;;;;15.50;5.70;;;19.00;99.90;;;;;;4959884;28;89433;-77
2023/10/12 12:32:33;;;;;;;15.48;5.53;;;18.90;99.90;;;;;;4963903;28;91552;-77
2023/10/12 12:35:02;;;;;;;13.82;5.25;;;18.90;99.90;;;;;;4951281;28;89738;-77
2023/10/12 12:37:29;;;;;;;15.50;5.68;;;18.90;99.90;;;;;;4965484;28;88004;-77
2023/10/12 12:40:29;;;;;;;12.30;5.43;;;18.90;99.90;;;;;;4966148;28;87906;-77
2023/10/12 12:42:46;;;;;;;11.07;5.38;;;18.70;99.90;;;;;;4962632;28;87986;-77
2023/10/12 12:45:12;;;;;;;12.25;5.18;;;18.70;99.90;;;;;;4967419;28;88312;-77
2023/10/12 12:47:38;;;;;;;10.57;5.22;;;18.70;99.90;;;;;;4967485;28;87939;-77
2023/10/12 12:50:04;;;;;;;12.02;4.90;;;18.70;99.90;;;;;;4967872;28;87286;-77
2023/10/12 12:52:30;;;;;;;10.18;5.13;;;18.70;99.90;;;;;;4968690;28;88742;-78
2023/10/12 12:54:55;;;;;;;12.82;5.35;;;18.70;99.90;;;;;;4967183;28;88490;-77
2023/10/12 12:57:23;;;;;;;12.40;5.32;;;18.70;99.90;;;;;;4955359;28;88753;-77
2023/10/12 12:59:48;;;;;;;12.35;5.95;;;18.60;99.90;;;;;;4965603;28;90460;-77
2023/10/12 13:02:14;;;;;;;17.85;6.65;;;18.70;99.90;;;;;;4951115;28;91864;-77
2023/10/12 13:04:40;;;;;;;14.38;5.85;;;18.70;99.90;;;;;;4965977;28;87871;-77
2023/10/12 13:07:08;;;;;;;19.63;7.15;;;18.60;99.90;;;;;;4967671;28;87390;-77
2023/10/12 13:09:36;;;;;;;18.75;6.75;;;18.60;99.90;;;;;;4964978;28;87663;-77
2023/10/12 13:12:05;;;;;;;18.52;7.18;;;18.50;99.90;;;;;;4951640;28;91958;-77
2023/10/12 13:14:31;;;;;;;12.02;6.57;;;18.50;99.90;;;;;;4964152;28;91385;-77
2023/10/12 13:16:57;;;;;;;18.45;7.55;;;18.40;99.90;;;;;;4964789;28;87583;-76
2023/10/12 13:19:24;;;;;;;15.43;7.90;;;18.30;99.90;;;;;;4954822;28;90979;-76
2023/10/12 13:21:50;;;;;;;16.92;7.85;;;18.20;99.90;;;;;;4966941;28;92887;-80
2023/10/12 13:24:23;;;;;;;18.67;7.47;;;18.10;99.90;;;;;;4970101;28;92586;-80
2023/10/12 13:26:48;;;;;;;14.50;7.40;;;18.10;99.90;;;;;;4970240;28;87660;-80
2023/10/12 13:29:14;;;;;;;15.02;7.63;;;18.00;99.90;;;;;;4970733;28;87739;-80
2023/10/12 13:31:40;;;;;;;15.48;6.88;;;17.90;99.90;;;;;;4957588;28;90823;-78
2023/10/12 13:34:06;;;;;;;15.02;6.57;;;17.90;99.90;;;;;;4967488;28;87839;-78
2023/10/12 13:36:34;;;;;;;16.90;7.40;;;17.90;99.90;;;;;;4965971;28;87546;-78
2023/10/12 13:39:00;;;;;;;16.42;6.88;;;17.90;99.90;;;;;;4968101;28;87623;-79
2023/10/12 13:41:26;;;;;;;18.42;8.10;;;17.90;99.90;;;;;;4969271;28;92126;-78
2023/10/12 13:43:52;;;;;;;16.08;7.22;;;17.80;99.90;;;;;;4950960;28;90541;-79
2023/10/12 13:46:18;;;;;;;15.65;6.75;;;17.80;99.90;;;;;;4948321;28;88422;-78
2023/10/12 13:48:47;;;;;;;15.30;7.45;;;17.80;99.90;;;;;;4951600;28;89488;-79
2023/10/12 13:51:23;;;;;;;15.20;7.68;;;17.80;99.90;;;;;;4968658;28;90297;-79
2023/10/12 13:53:53;;;;;;;14.48;7.63;;;17.90;99.90;;;;;;4967988;28;94831;-78
2023/10/12 13:56:23;;;;;;;19.20;7.82;;;17.90;99.90;;;;;;4947616;28;88083;-79
2023/10/12 13:58:52;;;;;;;18.95;6.78;;;17.80;99.90;;;;;;4966658;28;87733;-78
2023/10/12 14:01:23;;;;;;;15.35;7.35;;;17.80;99.90;;;;;;4967416;28;88435;-78
2023/10/12 14:04:00;;;;;;;18.55;7.97;;;17.80;99.90;;;;;;4946593;28;90228;-78
2023/10/12 14:06:27;;;;;;;15.32;7.05;;;17.70;99.90;;;;;;4965191;28;87712;-77
2023/10/12 14:08:54;;;;;;;16.48;7.93;;;17.70;99.90;;;;;;4938902;28;90769;-78
2023/10/12 14:11:20;;;;;;;19.38;8.20;;;17.70;99.90;;;;;;4945704;28;91150;-78
2023/10/12 14:13:47;;;;;;;21.23;7.38;;;17.70;99.90;;;;;;4951706;28;93823;-79
2023/10/12 14:16:14;;;;;;;15.90;7.85;;;17.70;99.90;;;;;;4965458;28;87596;-79
2023/10/12 14:18:41;;;;;;;15.07;7.47;;;17.70;99.90;;;;;;4966673;28;87967;-76
2023/10/12 14:21:11;;;;;;;14.05;8.18;;;17.70;99.90;;;;;;4951981;28;92057;-77
2023/10/12 14:23:45;;;;;;;17.15;8.27;;;17.60;99.90;;;;;;4963932;28;88172;-77
2023/10/12 14:26:17;;;;;;;18.20;8.32;;;17.60;99.90;;;;;;4965146;28;87709;-76
2023/10/12 14:28:45;;;;;;;16.40;8.55;;;17.60;99.90;;;;;;4950423;28;89441;-76
2023/10/12 14:31:11;;;;;;;19.98;8.85;;;17.60;99.90;;;;;;4966031;28;89201;-76
2023/10/12 14:33:37;;;;;;;19.50;9.32;;;17.60;99.90;;;;;;4965370;28;88164;-76
2023/10/12 14:36:05;;;;;;;17.73;9.23;;;17.60;99.90;;;;;;4965666;28;88564;-76
2023/10/12 14:38:33;;;;;;;20.58;8.80;;;17.60;99.90;;;;;;4951061;28;90605;-77
2023/10/12 14:40:59;;;;;;;24.42;9.70;;;17.60;99.90;;;;;;4963259;28;88657;-76
2023/10/12 14:43:29;;;;;;;20.02;9.63;;;17.60;99.90;;;;;;4963862;28;94602;-77
2023/10/12 14:46:10;;;;;;;14.55;8.88;;;17.60;99.90;;;;;;4941544;28;88250;-79
2023/10/12 14:48:53;;;;;;;19.83;9.88;;;17.60;99.90;;;;;;4963460;28;87656;-78
2023/10/12 14:51:24;;;;;;;19.20;10.07;;;17.50;99.90;;;;;;4966319;28;88430;-77
2023/10/12 14:53:50;;;;;;;19.73;9.23;;;17.50;99.90;;;;;;4964724;28;93000;-77
2023/10/12 14:56:23;;;;;;;22.98;10.13;;;17.50;99.90;;;;;;4950812;28;87640;-77
2023/10/12 14:58:50;;;;;;;21.55;10.30;;;17.40;99.90;;;;;;4945569;28;90703;-77
2023/10/12 15:01:17;;;;;;;22.85;9.82;;;17.30;99.90;;;;;;4963251;28;88412;-77
2023/10/12 15:03:46;;;;;;;23.13;10.07;;;17.30;99.90;;;;;;4965318;28;88837;-77
2023/10/12 15:06:12;;;;;;;22.98;11.00;;;17.30;99.90;;;;;;4964664;28;87533;-77
2023/10/12 15:08:39;;;;;;;27.73;10.30;;;17.20;99.90;;;;;;4964319;28;87596;-77
2023/10/12 15:11:05;;;;;;;22.10;11.25;;;17.20;99.90;;;;;;4949040;28;91135;-77
2023/10/12 15:13:31;;;;;;;23.77;9.63;;;17.20;99.90;;;;;;4945957;28;91999;-77
2023/10/12 15:15:58;;;;;;;20.23;10.48;;;17.20;99.90;;;;;;4964919;28;87990;-77
2023/10/12 15:18:24;;;;;;;23.88;10.50;;;17.20;99.90;;;;;;4963593;28;87100;-77
2023/10/12 15:20:53;;;;;;;19.83;10.90;;;17.10;99.90;;;;;;4964590;28;88423;-77
2023/10/12 15:23:24;;;;;;;30.92;10.30;;;17.20;99.90;;;;;;4961971;28;88154;-76
2023/10/12 15:25:58;;;;;;;24.45;10.02;;;17.20;99.90;;;;;;4963364;28;88861;-77
2023/10/12 15:28:23;;;;;;;19.38;9.65;;;17.20;99.90;;;;;;4964734;28;87916;-77
2023/10/12 15:30:52;;;;;;;24.40;10.30;;;17.20;99.90;;;;;;4955948;28;91490;-77
2023/10/12 15:33:17;;;;;;;19.45;9.15;;;17.20;99.90;;;;;;4948371;28;89884;-77
2023/10/12 15:35:46;;;;;;;21.17;10.00;;;17.20;99.90;;;;;;4967186;28;87605;-77
2023/10/12 15:38:14;;;;;;;17.50;9.18;;;17.20;99.90;;;;;;4956160;28;88274;-77
2023/10/12 15:40:41;;;;;;;19.77;9.55;;;17.20;99.90;;;;;;4966345;28;88542;-77
2023/10/12 15:43:17;;;;;;;19.50;9.23;;;17.20;99.90;;;;;;4967108;28;86889;-77
2023/10/12 15:45:47;;;;;;;19.90;9.98;;;17.20;99.90;;;;;;4966308;28;87554;-77
2023/10/12 15:48:13;;;;;;;20.83;9.18;;;17.20;99.90;;;;;;4967095;28;87507;-77
2023/10/12 15:50:41;;;;;;;24.00;9.80;;;17.20;99.90;;;;;;4965814;28;89893;-77
2023/10/12 15:53:07;;;;;;;22.80;9.90;;;17.20;99.90;;;;;;4966597;28;88997;-77
2023/10/12 15:55:35;;;;;;;21.80;10.32;;;17.20;99.90;;;;;;4968273;28;87805;-77
2023/10/12 15:58:01;;;;;;;26.10;10.80;;;17.20;99.90;;;;;;4968698;28;88039;-77
2023/10/12 16:00:29;;;;;;;20.48;9.90;;;17.20;99.90;;;;;;4965496;28;88768;-77
2023/10/12 16:02:57;;;;;;;17.70;9.00;;;17.20;99.90;;;;;;4967632;28;88328;-77
2023/10/12 16:05:28;;;;;;;19.88;10.18;;;17.20;99.90;;;;;;4951380;28;87231;-77
2023/10/12 16:07:55;;;;;;;28.80;10.05;;;17.20;99.90;;;;;;4958766;28;88066;-77
2023/10/12 16:10:22;;;;;;;21.58;10.27;;;17.20;99.90;;;;;;4947598;28;91828;-77
2023/10/12 16:12:49;;;;;;;18.67;9.13;;;17.20;99.90;;;;;;4968011;28;88615;-77
2023/10/12 16:15:15;;;;;;;20.58;10.55;;;17.20;99.90;;;;;;4967906;28;88280;-77
2023/10/12 16:17:48;;;;;;;22.92;10.77;;;17.20;99.90;;;;;;4959280;28;87582;-77
2023/10/12 16:20:15;;;;;;;20.27;10.95;;;17.20;99.90;;;;;;4967609;28;89066;-77
2023/10/12 16:22:44;;;;;;;26.08;11.50;;;17.20;99.90;;;;;;4956501;28;91804;-77
2023/10/12 16:25:13;;;;;;;18.83;11.10;;;17.20;99.90;;;;;;4965283;28;87849;-77
2023/10/12 16:27:40;;;;;;;20.52;10.30;;;17.20;99.90;;;;;;4955129;28;90810;-77
2023/10/12 16:30:14;;;;;;;21.25;10.80;;;17.20;99.90;;;;;;4967438;28;87825;-77
2023/10/12 16:32:42;;;;;;;21.58;11.40;;;17.20;99.90;;;;;;4966867;28;88761;-77
2023/10/12 16:35:09;;;;;;;24.05;11.63;;;17.20;99.90;;;;;;4964244;28;87529;-77
2023/10/12 16:37:35;;;;;;;29.38;11.27;;;17.20;99.90;;;;;;4966333;28;87975;-77
2023/10/12 16:40:01;;;;;;;26.95;11.45;;;17.20;99.90;;;;;;4940375;28;92639;-77
2023/10/12 16:42:26;;;;;;;27.38;11.27;;;17.20;99.90;;;;;;4966089;28;88237;-77
2023/10/12 16:44:52;;;;;;;28.02;11.38;;;17.20;99.90;;;;;;4964979;28;87601;-77
2023/10/12 16:47:18;;;;;;;27.83;12.40;;;17.20;99.90;;;;;;4967324;28;87368;-77
2023/10/12 16:49:49;;;;;;;24.13;12.98;;;17.20;99.90;;;;;;4966920;28;88334;-77
2023/10/12 16:52:15;;;;;;;19.80;11.68;;;17.20;99.90;;;;;;4949872;28;90928;-77
2023/10/12 16:54:44;;;;;;;27.92;13.27;;;17.20;99.90;;;;;;4951796;28;87865;-77
2023/10/12 16:57:10;;;;;;;27.70;12.25;;;17.20;99.90;;;;;;4967582;28;87445;-77
2023/10/12 16:59:36;;;;;;;21.88;12.52;;;17.20;99.90;;;;;;4965391;28;87993;-78
2023/10/12 17:02:02;;;;;;;23.77;13.05;;;17.20;99.90;;;;;;4967922;28;87524;-77
2023/10/12 17:04:30;;;;;;;22.63;12.35;;;17.30;99.90;;;;;;4964862;28;88236;-75
2023/10/12 17:06:58;;;;;;;22.73;12.75;;;17.30;99.90;;;;;;4965421;28;87480;-76
2023/10/12 17:09:25;;;;;;;22.90;11.77;;;17.30;99.90;;;;;;4966478;28;88821;-76
2023/10/12 17:11:51;;;;;;;23.25;11.80;;;17.30;99.90;;;;;;4965673;28;87591;-77
2023/10/12 17:14:18;;;;;;;23.77;12.88;;;17.40;99.90;;;;;;4964527;28;87658;-76
2023/10/12 17:16:45;;;;;;;24.85;12.27;;;17.40;99.90;;;;;;4959619;28;89944;-76